Time,TemperatureF,DewpointF,PressureIn,WindDirection,WindDirectionDegrees,WindSpeedMPH,WindSpeedGustMPH,Humidity,HourlyPrecipIn,Conditions,Clouds,dailyrainin,SoftwareType,DateUTC
2013-09-14 00:02:00,80.0,47.0,29.46,SE,141,5.0,7.0,31,0.00,,,0.00,,2013-09-14 07:02:00,
2013-09-14 00:12:00,80.0,47.0,29.46,SE,141,5.0,7.0,31,0.00,,,0.00,,2013-09-14 07:12:00,
2013-09-14 01:52:00,79.0,50.0,29.46,North,0,0.0,1.0,37,0.00,,,0.00,,2013-09-14 08:52:00,
2013-09-14 02:21:00,79.0,50.0,29.46,North,0,0.0,4.0,36,0.00,,,0.00,,2013-09-14 09:21:00,
2013-09-14 02:33:00,79.0,50.0,29.46,North,0,0.0,4.0,36,0.00,,,0.00,,2013-09-14 09:33:00,
2013-09-14 03:53:00,79.0,50.0,29.45,NW,323,1.0,5.0,36,0.00,,,0.00,,2013-09-14 10:53:00,
2013-09-14 04:22:00,79.0,51.0,29.45,North,0,0.0,1.0,38,0.00,,,0.00,,2013-09-14 11:22:00,
2013-09-14 04:33:00,79.0,51.0,29.45,North,0,0.0,1.0,38,0.00,,,0.00,,2013-09-14 11:33:00,
2013-09-14 04:52:00,79.0,51.0,29.44,North,0,0.0,5.0,38,0.00,,,0.00,,2013-09-14 11:52:00,
2013-09-14 05:22:00,77.0,51.0,29.45,North,0,0.0,0.0,40,0.00,,,0.00,,2013-09-14 12:22:00,
2013-09-14 05:31:00,77.0,51.0,29.45,North,0,0.0,0.0,40,0.00,,,0.00,,2013-09-14 12:31:00,
2013-09-14 05:52:00,77.0,50.0,29.45,North,0,0.0,2.0,39,0.00,,,0.00,,2013-09-14 12:52:00,
2013-09-14 07:21:00,77.0,49.0,29.47,North,0,0.0,6.0,38,0.00,,,0.00,,2013-09-14 14:21:00,
2013-09-14 07:32:00,77.0,49.0,29.47,North,0,0.0,6.0,38,0.00,,,0.00,,2013-09-14 14:32:00,
2013-09-14 07:52:00,77.0,49.0,29.48,North,0,0.0,1.0,38,0.00,,,0.00,,2013-09-14 14:52:00,
2013-09-14 08:22:00,79.0,50.0,29.48,North,0,0.0,5.0,36,0.00,,,0.00,,2013-09-14 15:22:00,
2013-09-14 08:33:00,79.0,50.0,29.48,North,0,0.0,5.0,36,0.00,,,0.00,,2013-09-14 15:33:00,
2013-09-14 09:23:00,79.0,49.0,29.49,North,0,0.0,1.0,35,0.00,,,0.00,,2013-09-14 16:23:00,
2013-09-14 09:33:00,79.0,49.0,29.49,North,0,0.0,1.0,35,0.00,,,0.00,,2013-09-14 16:33:00,
2013-09-14 09:54:00,82.0,49.0,29.48,North,0,0.0,0.0,32,0.00,,,0.00,,2013-09-14 16:54:00,
2013-09-14 10:23:00,84.0,53.0,29.49,North,0,0.0,1.0,35,0.00,,,0.00,,2013-09-14 17:23:00,
2013-09-14 10:33:00,84.0,53.0,29.49,North,0,0.0,1.0,35,0.00,,,0.00,,2013-09-14 17:33:00,
2013-09-14 10:54:00,85.0,54.0,29.49,North,0,0.0,0.0,35,0.00,,,0.00,,2013-09-14 17:54:00,
2013-09-14 11:21:00,86.0,56.0,29.49,North,0,0.0,1.0,36,0.00,,,0.00,,2013-09-14 18:21:00,
2013-09-14 11:32:00,86.0,56.0,29.49,North,0,0.0,1.0,36,0.00,,,0.00,,2013-09-14 18:32:00,
2013-09-14 11:52:00,86.0,56.0,29.49,North,0,0.0,0.0,36,0.00,,,0.00,,2013-09-14 18:52:00,
2013-09-14 12:01:00,86.0,56.0,29.49,North,0,0.0,0.0,36,0.00,,,0.00,,2013-09-14 19:01:00,
2013-09-14 12:22:00,83.0,59.0,29.48,North,0,0.0,1.0,45,0.00,,,0.00,,2013-09-14 19:22:00,
2013-09-14 12:32:00,83.0,59.0,29.48,North,0,0.0,1.0,45,0.00,,,0.00,,2013-09-14 19:32:00,
2013-09-14 12:52:00,85.0,60.0,29.48,North,0,0.0,1.0,43,0.00,,,0.00,,2013-09-14 19:52:00,
2013-09-14 13:22:00,87.0,60.0,29.47,North,0,0.0,1.0,40,0.00,,,0.00,,2013-09-14 20:22:00,
2013-09-14 13:32:00,87.0,60.0,29.47,North,0,0.0,1.0,40,0.00,,,0.00,,2013-09-14 20:32:00,
2013-09-14 13:52:00,85.0,59.0,29.47,North,0,0.0,2.0,42,0.00,,,0.00,,2013-09-14 20:52:00,
2013-09-14 14:22:00,86.0,58.0,29.45,North,0,0.0,2.0,39,0.00,,,0.00,,2013-09-14 21:22:00,
2013-09-14 14:32:00,86.0,58.0,29.45,North,0,0.0,2.0,39,0.00,,,0.00,,2013-09-14 21:32:00,
2013-09-14 14:54:00,87.0,58.0,29.45,North,0,0.0,2.0,37,0.00,,,0.00,,2013-09-14 21:54:00,
2013-09-14 15:13:00,86.0,58.0,29.44,North,0,0.0,0.0,39,0.00,,,0.00,,2013-09-14 22:13:00,
2013-09-14 15:24:00,86.0,58.0,29.44,North,0,0.0,0.0,39,0.00,,,0.00,,2013-09-14 22:24:00,
2013-09-14 15:34:00,86.0,58.0,29.44,North,0,0.0,0.0,39,0.00,,,0.00,,2013-09-14 22:34:00,
2013-09-14 15:53:00,86.0,57.0,29.42,North,0,0.0,0.0,38,0.00,,,0.00,,2013-09-14 22:53:00,
2013-09-14 16:23:00,87.0,54.0,29.42,SW,226,1.0,5.0,32,0.00,,,0.00,,2013-09-14 23:23:00,
2013-09-14 16:34:00,87.0,54.0,29.42,SW,226,1.0,5.0,32,0.00,,,0.00,,2013-09-14 23:34:00,
2013-09-14 16:53:00,87.0,54.0,29.42,North,0,0.0,3.0,33,0.00,,,0.00,,2013-09-14 23:53:00,
2013-09-14 17:22:00,87.0,53.0,29.42,WSW,256,1.0,5.0,31,0.00,,,0.00,,2013-09-15 00:22:00,
2013-09-14 17:32:00,87.0,53.0,29.42,WSW,256,1.0,5.0,31,0.00,,,0.00,,2013-09-15 00:32:00,
2013-09-14 17:53:00,88.0,52.0,29.41,WSW,237,1.0,6.0,29,0.00,,,0.00,,2013-09-15 00:53:00,
2013-09-14 18:01:00,88.0,52.0,29.41,WSW,237,1.0,6.0,29,0.00,,,0.00,,2013-09-15 01:01:00,
2013-09-14 18:22:00,85.0,-99.9,29.42,WSW,253,3.0,8.0,-999,0.00,,,0.00,,2013-09-15 01:22:00,
2013-09-14 18:32:00,85.0,-99.9,29.42,WSW,253,3.0,8.0,-999,0.00,,,0.00,,2013-09-15 01:32:00,
2013-09-14 18:52:00,83.0,51.0,29.42,West,263,10.0,12.0,33,0.00,,,0.00,,2013-09-15 01:52:00,
2013-09-14 19:22:00,83.0,50.0,29.42,West,271,6.0,8.0,32,0.00,,,0.00,,2013-09-15 02:22:00,
2013-09-14 19:32:00,83.0,50.0,29.42,West,271,6.0,8.0,32,0.00,,,0.00,,2013-09-15 02:32:00,
2013-09-14 19:52:00,82.0,51.0,29.42,West,266,6.0,12.0,34,0.00,,,0.00,,2013-09-15 02:52:00,
2013-09-14 20:11:00,81.0,51.0,29.41,WNW,289,9.0,12.0,35,0.00,,,0.00,,2013-09-15 03:11:00,
2013-09-14 20:21:00,81.0,51.0,29.41,WNW,289,9.0,12.0,35,0.00,,,0.00,,2013-09-15 03:21:00,
2013-09-14 20:34:00,81.0,51.0,29.41,WNW,289,9.0,12.0,35,0.00,,,0.00,,2013-09-15 03:34:00,
2013-09-14 22:23:00,84.0,51.0,29.44,NW,309,6.0,7.0,32,0.00,,,0.00,,2013-09-15 05:23:00,
2013-09-14 23:52:00,85.0,47.0,29.44,North,0,0.0,0.0,27,0.00,,,0.00,,2013-09-15 06:52:00,